Wilton, New Hampshire
Current Conditions -  °F | °C
As of 3:51 PM on Sunday 23 Nov 2014 (Local Time) from KASH Reporting Station
Broken Clouds Broken Clouds  
Wind Chill: 55°   Ceiling: 6000
Heat Index: 55°   Visibility: 10mi
Dew Point: 38°   Wind: 3mph
Humidity: 53%   Direction: NA
Pressure: 30.1"   Gusts: NA
Location:  42.85°N, 71.74°W
Report Text: KASH 232051Z VRB03KT 10SM BKN060 13/03 A3010 RMK AO2 50002 T01270033 SLP445
Loading
Personal Weather Stations






























Interactive Weather Map New forecast layout! Learn more

10-Day Weather Forecast

Advertisements
Track Severe Weather on mobile